Time;durP1;ratioP1;P1;durP2;ratioP2;P2;SDS_P1;SDS_P2;PMS_P1;PMS_P2;Temp;Humidity;BMP_temperature;BMP_pressure;BME280_temperature;BME280_humidity;BME280_pressure;Samples;Min_cycle;Max_cycle;Signal;HPM_P1;HPM_P2
2024/01/04 00:00:01;;;;;;;15.50;8.27;;;8.70;34.10;;;;;;5102593;28;20691;-70
2024/01/04 00:02:32;;;;;;;13.55;8.25;;;8.70;34.50;;;;;;5096984;28;20223;-70
2024/01/04 00:05:01;;;;;;;13.50;7.75;;;8.70;33.50;;;;;;5080446;28;20225;-70
2024/01/04 00:07:30;;;;;;;14.38;7.85;;;8.80;33.80;;;;;;5092410;28;20783;-69
2024/01/04 00:09:59;;;;;;;11.27;7.50;;;8.80;33.40;;;;;;5089129;28;20246;-69
2024/01/04 00:12:27;;;;;;;12.50;7.10;;;8.70;31.60;;;;;;5072080;28;20292;-69
2024/01/04 00:14:59;;;;;;;12.73;7.28;;;8.80;32.70;;;;;;5095924;28;20222;-69
2024/01/04 00:17:29;;;;;;;13.00;7.32;;;8.80;32.20;;;;;;5075666;28;20227;-70
2024/01/04 00:19:59;;;;;;;14.55;7.15;;;8.70;32.50;;;;;;5098431;28;20222;-69
2024/01/04 00:22:28;;;;;;;11.02;7.20;;;8.80;32.80;;;;;;5096485;28;20723;-70
2024/01/04 00:24:56;;;;;;;11.60;7.50;;;8.80;33.50;;;;;;5116610;28;20480;-70
2024/01/04 00:27:25;;;;;;;10.25;6.72;;;8.80;33.70;;;;;;5098659;28;20708;-70
2024/01/04 00:30:18;;;;;;;8.98;6.03;;;8.80;33.00;;;;;;5119190;27;20222;-69
2024/01/04 00:32:48;;;;;;;9.23;5.82;;;8.80;32.40;;;;;;5112735;27;20218;-70
2024/01/04 00:35:16;;;;;;;10.27;6.03;;;8.70;32.50;;;;;;5094895;28;20239;-71
2024/01/04 00:37:45;;;;;;;9.23;5.70;;;8.80;33.40;;;;;;5113963;27;20230;-69
2024/01/04 00:40:13;;;;;;;12.20;5.78;;;8.70;34.30;;;;;;5105977;28;20689;-70
2024/01/04 00:42:42;;;;;;;8.82;5.38;;;8.70;35.50;;;;;;5111442;27;20308;-71
2024/01/04 00:45:11;;;;;;;8.95;5.35;;;8.80;35.50;;;;;;5119203;27;20277;-70
2024/01/04 00:47:40;;;;;;;11.05;6.47;;;8.80;35.00;;;;;;5117115;27;20221;-70
2024/01/04 00:50:11;;;;;;;7.68;5.10;;;8.80;35.20;;;;;;5104011;27;20666;-70
2024/01/04 00:52:40;;;;;;;7.18;5.00;;;8.80;34.50;;;;;;5116323;27;20761;-69
2024/01/04 00:55:09;;;;;;;8.48;4.90;;;8.70;34.30;;;;;;5123511;27;20218;-71
2024/01/04 00:57:38;;;;;;;6.85;5.25;;;8.80;33.80;;;;;;5101465;27;20248;-71
2024/01/04 01:00:08;;;;;;;9.85;5.25;;;8.80;34.40;;;;;;5123059;27;20257;-70
2024/01/04 01:02:36;;;;;;;6.75;5.00;;;8.70;34.60;;;;;;5118405;27;20222;-70
2024/01/04 01:05:06;;;;;;;10.27;5.50;;;8.80;35.10;;;;;;5121401;27;20222;-69
2024/01/04 01:07:36;;;;;;;9.40;5.57;;;8.70;34.20;;;;;;5099537;27;20297;-71
2024/01/04 01:10:04;;;;;;;7.25;5.18;;;8.80;34.00;;;;;;5123309;27;20713;-71
2024/01/04 01:12:33;;;;;;;9.13;5.30;;;8.70;33.80;;;;;;5106214;27;20222;-70
2024/01/04 01:15:02;;;;;;;10.18;5.32;;;8.70;34.00;;;;;;5125196;27;20230;-72
2024/01/04 01:17:30;;;;;;;11.65;6.57;;;8.80;34.50;;;;;;5118445;27;20223;-71
2024/01/04 01:20:00;;;;;;;8.25;5.95;;;8.70;35.00;;;;;;5095456;27;20344;-69
2024/01/04 01:22:29;;;;;;;12.32;6.60;;;8.70;35.90;;;;;;5118034;27;20232;-69
2024/01/04 01:24:59;;;;;;;13.07;6.95;;;8.70;35.60;;;;;;5119618;27;20285;-71
2024/01/04 01:27:28;;;;;;;12.45;6.80;;;8.70;36.00;;;;;;5103958;27;20226;-70
2024/01/04 01:29:57;;;;;;;8.52;6.00;;;8.80;35.50;;;;;;5103856;27;20240;-69
2024/01/04 01:32:26;;;;;;;10.50;6.55;;;8.70;34.90;;;;;;5107901;27;20225;-70
2024/01/04 01:34:57;;;;;;;9.38;6.07;;;8.80;35.50;;;;;;5106789;27;20586;-68
2024/01/04 01:37:26;;;;;;;11.30;5.45;;;8.70;35.20;;;;;;5104728;27;20222;-70
2024/01/04 01:39:55;;;;;;;11.05;5.22;;;8.70;34.50;;;;;;5104732;27;20244;-67
2024/01/04 01:42:25;;;;;;;10.45;5.07;;;8.70;34.10;;;;;;5118361;27;20229;-69
2024/01/04 01:44:53;;;;;;;9.25;5.28;;;8.70;33.80;;;;;;5109668;27;20578;-67
2024/01/04 01:47:24;;;;;;;9.13;4.97;;;8.80;33.40;;;;;;5119867;27;20230;-70
2024/01/04 01:49:53;;;;;;;9.00;4.78;;;8.80;34.00;;;;;;5100291;27;20218;-69
2024/01/04 01:52:23;;;;;;;7.50;4.45;;;8.70;32.90;;;;;;5120958;27;20226;-70
2024/01/04 01:54:52;;;;;;;8.07;4.40;;;8.70;32.90;;;;;;5122004;27;20329;-68
2024/01/04 01:57:22;;;;;;;6.93;4.65;;;8.70;33.30;;;;;;5123065;27;20230;-69
2024/01/04 01:59:52;;;;;;;7.13;4.95;;;8.70;33.80;;;;;;5095504;27;20215;-69
2024/01/04 02:02:21;;;;;;;9.82;5.03;;;8.70;32.90;;;;;;5122351;27;20222;-69
2024/01/04 02:04:49;;;;;;;6.65;4.60;;;8.80;32.80;;;;;;5096951;27;20219;-69
2024/01/04 02:07:18;;;;;;;9.98;5.55;;;8.80;33.10;;;;;;5104379;27;20225;-68
2024/01/04 02:09:47;;;;;;;8.93;5.28;;;8.80;32.70;;;;;;5120194;27;20226;-68
2024/01/04 02:12:15;;;;;;;8.90;4.90;;;8.90;32.30;;;;;;5121823;27;20218;-70
2024/01/04 02:14:44;;;;;;;9.00;5.03;;;8.80;31.90;;;;;;5113612;27;20237;-70
2024/01/04 02:17:14;;;;;;;8.65;4.80;;;8.80;32.80;;;;;;5118942;27;20246;-69
2024/01/04 02:19:43;;;;;;;7.25;5.07;;;8.80;32.40;;;;;;5101300;27;20708;-72
2024/01/04 02:22:12;;;;;;;7.82;4.50;;;8.80;33.20;;;;;;5101227;27;20230;-71
2024/01/04 02:24:42;;;;;;;7.97;4.30;;;8.80;32.50;;;;;;5114954;27;20275;-71
2024/01/04 02:27:10;;;;;;;6.55;4.15;;;8.80;31.90;;;;;;5111362;27;20745;-70
2024/01/04 02:29:39;;;;;;;6.60;4.30;;;8.80;31.90;;;;;;5103353;27;20641;-69
2024/01/04 02:32:08;;;;;;;5.68;4.13;;;8.90;32.00;;;;;;5120124;27;20283;-69
2024/01/04 02:34:36;;;;;;;5.90;3.85;;;8.80;31.60;;;;;;5103750;27;20317;-69
2024/01/04 02:37:05;;;;;;;6.88;4.00;;;8.90;32.40;;;;;;5129033;27;20222;-69
2024/01/04 02:39:33;;;;;;;8.50;4.28;;;8.80;31.70;;;;;;5124001;27;20325;-69
2024/01/04 02:42:03;;;;;;;6.63;4.25;;;8.80;31.00;;;;;;5117137;27;20341;-69
2024/01/04 02:44:32;;;;;;;6.75;4.00;;;8.80;32.70;;;;;;5097326;27;20219;-69
2024/01/04 02:47:01;;;;;;;6.38;3.75;;;8.80;31.50;;;;;;5101660;27;20245;-69
2024/01/04 02:49:30;;;;;;;6.65;3.90;;;8.70;32.20;;;;;;5100931;27;20288;-69
2024/01/04 02:51:59;;;;;;;6.88;4.03;;;8.70;31.50;;;;;;5097678;27;20223;-70
2024/01/04 02:54:28;;;;;;;8.27;4.28;;;8.70;31.50;;;;;;5093168;28;20317;-71
2024/01/04 02:56:59;;;;;;;7.85;3.88;;;8.70;31.00;;;;;;5100612;27;20307;-70
2024/01/04 02:59:29;;;;;;;7.75;4.07;;;8.70;31.20;;;;;;5098410;27;20223;-69
2024/01/04 03:01:58;;;;;;;5.90;3.95;;;8.70;31.00;;;;;;5120514;27;20256;-69
2024/01/04 03:04:26;;;;;;;6.75;3.90;;;8.60;31.00;;;;;;5113326;27;20252;-68
2024/01/04 03:06:55;;;;;;;7.30;4.60;;;8.60;32.30;;;;;;5098428;27;20218;-67
2024/01/04 03:09:23;;;;;;;7.57;4.18;;;8.60;31.80;;;;;;5122789;27;20229;-68
2024/01/04 03:11:52;;;;;;;8.02;4.20;;;8.60;31.10;;;;;;5090546;28;20303;-69
2024/01/04 03:14:20;;;;;;;6.95;4.10;;;8.70;30.20;;;;;;5117242;27;20226;-70
2024/01/04 03:16:50;;;;;;;8.80;4.53;;;8.70;30.30;;;;;;5098211;27;20538;-69
2024/01/04 03:19:19;;;;;;;8.65;4.15;;;8.60;31.10;;;;;;5118016;27;20270;-68
2024/01/04 03:21:47;;;;;;;9.38;4.43;;;8.70;30.60;;;;;;5079728;28;20230;-69
2024/01/04 03:24:16;;;;;;;8.93;4.43;;;8.70;30.90;;;;;;5096589;28;20231;-69
2024/01/04 03:26:45;;;;;;;7.43;4.00;;;8.70;31.00;;;;;;5100842;28;20227;-70
2024/01/04 03:29:13;;;;;;;8.13;4.40;;;8.70;31.00;;;;;;5105674;27;20226;-70
2024/01/04 03:31:42;;;;;;;9.65;4.25;;;8.70;30.60;;;;;;5098462;27;20339;-69
2024/01/04 03:34:12;;;;;;;5.82;3.75;;;8.70;30.40;;;;;;5080490;28;20238;-70
2024/01/04 03:36:42;;;;;;;6.28;4.10;;;8.60;30.20;;;;;;5097023;28;20630;-69
2024/01/04 03:39:10;;;;;;;6.85;4.32;;;8.60;30.50;;;;;;5097021;28;20335;-69
2024/01/04 03:41:39;;;;;;;8.35;4.10;;;8.60;31.00;;;;;;5081528;28;20242;-68
2024/01/04 03:44:07;;;;;;;6.95;3.80;;;8.60;30.60;;;;;;5093108;28;20319;-68
2024/01/04 03:46:36;;;;;;;7.80;3.80;;;8.60;30.00;;;;;;5099826;28;20240;-69
2024/01/04 03:49:04;;;;;;;6.10;4.00;;;8.60;29.50;;;;;;5083138;27;20494;-69
2024/01/04 03:51:35;;;;;;;7.32;3.95;;;8.60;30.40;;;;;;5074617;28;20314;-70
2024/01/04 03:54:03;;;;;;;8.60;3.92;;;8.60;30.20;;;;;;5091499;28;20247;-70
2024/01/04 03:56:32;;;;;;;8.10;3.95;;;8.60;29.30;;;;;;5088306;28;20617;-69
2024/01/04 03:59:01;;;;;;;5.82;3.42;;;8.60;29.80;;;;;;5098508;28;20219;-69
2024/01/04 04:01:29;;;;;;;7.88;3.92;;;8.60;29.60;;;;;;5082209;28;20313;-70
2024/01/04 04:03:58;;;;;;;8.02;3.60;;;8.60;41.20;;;;;;5077260;28;20298;-70
2024/01/04 04:06:26;;;;;;;6.47;3.40;;;8.60;29.80;;;;;;5103025;27;20214;-69
2024/01/04 04:08:56;;;;;;;4.53;3.08;;;8.60;30.00;;;;;;5093324;28;20223;-69
2024/01/04 04:11:25;;;;;;;7.30;3.63;;;8.50;30.00;;;;;;5078895;28;20228;-70
2024/01/04 04:13:54;;;;;;;5.10;2.92;;;8.50;29.60;;;;;;5076650;28;21751;-69
2024/01/04 04:16:23;;;;;;;5.63;3.22;;;8.60;30.80;;;;;;5084165;28;20237;-69
2024/01/04 04:18:52;;;;;;;5.68;2.95;;;8.60;40.00;;;;;;5099966;28;20889;-69
2024/01/04 04:21:21;;;;;;;4.65;3.15;;;8.60;29.60;;;;;;5111004;27;20333;-69
2024/01/04 04:23:50;;;;;;;7.47;3.90;;;8.60;29.80;;;;;;5106430;27;20223;-68
2024/01/04 04:26:21;;;;;;;4.95;3.47;;;8.50;29.40;;;;;;5107542;27;20828;-71
2024/01/04 04:28:50;;;;;;;5.82;3.70;;;8.60;30.00;;;;;;5120591;27;20222;-71
2024/01/04 04:31:20;;;;;;;11.10;3.88;;;8.50;30.50;;;;;;5125150;27;20712;-70
2024/01/04 04:33:49;;;;;;;7.80;4.03;;;8.60;29.70;;;;;;5115175;27;20219;-71
2024/01/04 04:36:18;;;;;;;7.05;4.03;;;8.60;29.70;;;;;;5123505;27;20226;-69
2024/01/04 04:38:46;;;;;;;6.72;3.40;;;8.60;41.00;;;;;;5101971;27;20266;-70
2024/01/04 04:41:15;;;;;;;8.70;3.90;;;8.60;40.00;;;;;;5123955;27;20301;-70
2024/01/04 04:43:45;;;;;;;5.97;3.80;;;8.60;29.50;;;;;;5106350;27;20249;-69
2024/01/04 04:46:14;;;;;;;6.57;4.00;;;8.50;29.70;;;;;;5127703;27;20218;-70
2024/01/04 04:48:42;;;;;;;7.70;4.10;;;8.40;29.60;;;;;;5101698;27;20233;-70
2024/01/04 04:51:11;;;;;;;6.65;4.32;;;8.40;31.20;;;;;;5095580;27;20252;-70
2024/01/04 04:53:40;;;;;;;8.40;4.82;;;8.30;30.30;;;;;;5118000;27;20800;-70
2024/01/04 04:56:09;;;;;;;7.72;4.70;;;8.30;31.10;;;;;;5106291;27;20225;-70
2024/01/04 04:58:38;;;;;;;9.27;4.30;;;8.30;30.90;;;;;;5101766;27;20222;-68
2024/01/04 05:01:09;;;;;;;9.07;4.32;;;8.30;30.60;;;;;;5116864;27;20222;-69
2024/01/04 05:03:37;;;;;;;8.27;4.32;;;8.30;30.20;;;;;;5125133;27;20234;-69
2024/01/04 05:06:08;;;;;;;4.82;3.90;;;8.20;30.70;;;;;;5118935;27;20218;-70
2024/01/04 05:08:37;;;;;;;7.10;4.20;;;8.20;30.60;;;;;;5124946;27;20740;-70
2024/01/04 05:11:06;;;;;;;7.07;4.10;;;8.30;31.20;;;;;;5121069;27;20341;-69
2024/01/04 05:13:35;;;;;;;8.30;4.45;;;8.40;29.50;;;;;;5103586;27;20230;-69
2024/01/04 05:16:03;;;;;;;7.07;4.35;;;8.30;30.00;;;;;;5103990;27;20258;-69
2024/01/04 05:18:33;;;;;;;6.72;4.60;;;8.30;30.10;;;;;;5120588;27;20226;-69
2024/01/04 05:21:02;;;;;;;7.28;4.32;;;8.30;29.80;;;;;;5111398;27;20238;-69
2024/01/04 05:23:31;;;;;;;9.25;4.57;;;8.30;30.60;;;;;;5083146;28;20902;-69
2024/01/04 05:26:00;;;;;;;8.98;4.50;;;8.40;29.50;;;;;;5103589;27;20653;-70
2024/01/04 05:28:29;;;;;;;9.55;4.80;;;8.30;30.00;;;;;;5096648;27;20611;-70
2024/01/04 05:30:57;;;;;;;7.68;4.30;;;8.40;30.50;;;;;;5096423;28;20231;-69
2024/01/04 05:33:26;;;;;;;7.07;4.45;;;8.40;29.30;;;;;;5106995;27;20335;-70
2024/01/04 05:35:56;;;;;;;6.60;4.68;;;8.40;29.30;;;;;;5078101;28;20236;-70
2024/01/04 05:38:25;;;;;;;6.22;4.25;;;8.40;29.00;;;;;;5087371;28;20215;-70
2024/01/04 05:40:54;;;;;;;9.07;5.05;;;8.40;29.00;;;;;;5094927;28;20219;-69
2024/01/04 05:43:22;;;;;;;6.88;4.45;;;8.50;28.80;;;;;;5081193;28;20235;-71
2024/01/04 05:45:50;;;;;;;7.60;4.55;;;8.50;28.80;;;;;;5095758;27;21035;-70
2024/01/04 05:48:19;;;;;;;7.88;4.25;;;8.50;28.80;;;;;;5082035;28;20484;-70
2024/01/04 05:50:49;;;;;;;8.98;4.72;;;8.50;28.80;;;;;;5093877;27;20223;-71
2024/01/04 05:53:19;;;;;;;9.55;4.70;;;8.50;29.10;;;;;;5092501;27;20231;-70
2024/01/04 05:55:48;;;;;;;10.80;4.78;;;8.50;28.50;;;;;;5100676;28;20223;-70
2024/01/04 05:58:16;;;;;;;10.45;5.45;;;8.50;28.60;;;;;;5084370;28;20226;-69
2024/01/04 06:00:45;;;;;;;8.48;4.57;;;8.40;28.50;;;;;;5095673;28;20235;-69
2024/01/04 06:03:13;;;;;;;8.35;4.90;;;8.40;28.80;;;;;;5084471;28;20284;-69
2024/01/04 06:05:42;;;;;;;8.80;5.15;;;8.50;28.50;;;;;;5094983;28;20228;-69
2024/01/04 06:08:10;;;;;;;8.32;4.88;;;8.50;28.40;;;;;;5080886;27;20247;-69
2024/01/04 06:10:40;;;;;;;11.75;5.88;;;8.50;28.60;;;;;;5077491;28;20227;-69
2024/01/04 06:13:09;;;;;;;8.98;4.78;;;8.50;28.40;;;;;;5098959;27;20222;-68
2024/01/04 06:15:38;;;;;;;8.55;4.88;;;8.50;27.40;;;;;;5089224;28;20222;-70
2024/01/04 06:18:08;;;;;;;8.40;4.47;;;8.50;27.90;;;;;;5085675;27;20219;-69
2024/01/04 06:20:38;;;;;;;8.40;5.00;;;8.50;28.20;;;;;;5089311;27;20245;-70
2024/01/04 06:23:07;;;;;;;7.50;4.78;;;8.50;28.30;;;;;;5120752;27;20271;-70
2024/01/04 06:25:36;;;;;;;9.95;4.53;;;8.50;28.10;;;;;;5101872;27;20218;-69
2024/01/04 06:28:06;;;;;;;8.55;5.15;;;8.40;28.60;;;;;;5105422;27;20237;-68
2024/01/04 06:30:35;;;;;;;8.23;5.05;;;8.40;28.90;;;;;;5121247;27;20218;-70
2024/01/04 06:33:05;;;;;;;7.25;4.85;;;8.40;28.90;;;;;;5120381;27;20305;-70
2024/01/04 06:35:33;;;;;;;10.30;5.35;;;8.40;29.20;;;;;;5105339;27;20715;-70
2024/01/04 06:38:07;;;;;;;9.40;4.85;;;8.40;29.50;;;;;;5119193;27;20234;-69
2024/01/04 06:40:36;;;;;;;8.77;4.63;;;8.50;28.30;;;;;;5104590;27;20230;-70
2024/01/04 06:43:08;;;;;;;7.45;4.57;;;8.50;27.80;;;;;;5121767;27;20920;-69
2024/01/04 06:45:37;;;;;;;9.65;5.07;;;8.40;28.60;;;;;;5109655;27;20225;-71
2024/01/04 06:48:08;;;;;;;9.73;4.78;;;8.40;29.10;;;;;;5122188;27;20214;-70
2024/01/04 06:50:38;;;;;;;9.48;5.15;;;8.30;29.00;;;;;;5119413;27;20247;-71
2024/01/04 06:53:06;;;;;;;8.63;4.55;;;8.30;28.80;;;;;;5118279;27;20225;-69
2024/01/04 06:55:35;;;;;;;6.05;4.25;;;8.40;28.70;;;;;;5102970;27;20315;-70
2024/01/04 06:58:04;;;;;;;8.07;4.93;;;8.40;29.10;;;;;;5122102;27;20228;-69
2024/01/04 07:00:34;;;;;;;8.23;5.38;;;8.50;29.20;;;;;;5124143;27;20217;-69
2024/01/04 07:03:03;;;;;;;12.13;6.20;;;8.50;28.90;;;;;;5131257;27;20302;-71
2024/01/04 07:05:32;;;;;;;10.52;5.63;;;8.50;29.20;;;;;;5118451;27;20697;-71
2024/01/04 07:08:01;;;;;;;8.15;5.05;;;8.50;29.90;;;;;;5116534;27;20221;-70
2024/01/04 07:10:29;;;;;;;9.05;4.88;;;8.50;30.50;;;;;;5118406;27;20222;-69
2024/01/04 07:12:58;;;;;;;11.80;5.78;;;8.60;28.60;;;;;;5103766;27;20231;-71
2024/01/04 07:15:26;;;;;;;12.20;5.90;;;8.60;28.30;;;;;;5097473;27;20233;-70
2024/01/04 07:17:57;;;;;;;10.38;5.03;;;8.60;29.00;;;;;;5102144;27;20310;-69
2024/01/04 07:20:26;;;;;;;9.13;4.82;;;8.50;29.40;;;;;;5112352;27;20218;-69
2024/01/04 07:22:54;;;;;;;12.23;5.00;;;8.50;28.60;;;;;;5102687;27;20234;-70
2024/01/04 07:25:23;;;;;;;7.05;4.90;;;8.40;29.90;;;;;;5116646;27;20218;-69
2024/01/04 07:27:52;;;;;;;7.75;5.10;;;8.40;29.90;;;;;;5117880;27;20270;-70
2024/01/04 07:30:22;;;;;;;13.40;5.43;;;8.40;29.90;;;;;;5088904;27;20236;-70
2024/01/04 07:32:50;;;;;;;12.52;5.18;;;8.50;30.10;;;;;;5117735;27;20225;-69
2024/01/04 07:35:23;;;;;;;8.43;5.18;;;8.50;29.90;;;;;;5117243;27;20534;-71
2024/01/04 07:37:52;;;;;;;10.52;5.85;;;8.50;29.40;;;;;;5121110;27;20222;-69
2024/01/04 07:40:20;;;;;;;8.25;6.50;;;8.50;29.40;;;;;;5108504;27;20350;-68
2024/01/04 07:42:49;;;;;;;7.90;4.80;;;8.50;30.00;;;;;;5122695;27;20563;-69
2024/01/04 07:45:18;;;;;;;10.70;5.57;;;8.50;29.90;;;;;;5103988;27;20222;-69
2024/01/04 07:47:46;;;;;;;7.03;5.45;;;8.60;29.50;;;;;;5103145;27;20217;-68
2024/01/04 07:50:15;;;;;;;12.82;5.47;;;8.50;30.20;;;;;;5107864;27;20218;-68
2024/01/04 07:52:45;;;;;;;8.15;5.32;;;8.60;30.00;;;;;;5100976;27;20218;-68
2024/01/04 07:55:13;;;;;;;7.78;5.22;;;8.60;30.50;;;;;;5103812;27;20251;-69
2024/01/04 07:57:42;;;;;;;9.18;5.55;;;8.60;29.90;;;;;;5113087;27;20214;-67
2024/01/04 08:00:11;;;;;;;7.95;5.68;;;8.60;30.00;;;;;;5114115;27;20214;-66
2024/01/04 08:02:39;;;;;;;9.13;6.00;;;8.70;30.90;;;;;;5116325;27;22134;-73
2024/01/04 08:05:10;;;;;;;9.43;5.22;;;8.70;29.80;;;;;;5094308;28;20429;-66
2024/01/04 08:07:38;;;;;;;7.97;5.50;;;8.70;30.00;;;;;;5119404;27;20795;-69
2024/01/04 08:10:11;;;;;;;8.43;5.50;;;8.70;29.20;;;;;;5106455;27;20612;-68
2024/01/04 08:12:41;;;;;;;7.75;5.47;;;8.70;28.90;;;;;;5096079;27;21143;-68
2024/01/04 08:15:11;;;;;;;8.77;5.95;;;8.70;29.30;;;;;;5129717;27;20728;-68
2024/01/04 08:17:40;;;;;;;11.20;6.70;;;8.70;29.50;;;;;;5112594;28;20878;-67
2024/01/04 08:20:10;;;;;;;10.23;6.05;;;8.70;29.50;;;;;;5115873;27;20294;-69
2024/01/04 08:22:39;;;;;;;7.53;5.80;;;8.80;29.60;;;;;;5103648;28;21032;-68
2024/01/04 08:25:10;;;;;;;7.30;5.30;;;8.70;30.00;;;;;;5097210;28;20611;-68
2024/01/04 08:27:38;;;;;;;10.40;5.18;;;8.80;28.70;;;;;;5101534;28;20218;-68
2024/01/04 08:30:08;;;;;;;9.63;5.63;;;8.80;28.30;;;;;;5117242;27;20233;-69
2024/01/04 08:32:37;;;;;;;7.60;5.47;;;8.80;28.10;;;;;;5114204;28;20226;-69
2024/01/04 08:35:06;;;;;;;7.45;5.00;;;8.80;28.80;;;;;;5120271;27;20230;-68
2024/01/04 08:37:35;;;;;;;9.95;5.78;;;8.80;28.30;;;;;;5100783;28;20226;-70
2024/01/04 08:40:04;;;;;;;8.70;5.63;;;8.80;28.70;;;;;;5121631;27;20218;-69
2024/01/04 08:42:34;;;;;;;9.18;5.05;;;8.80;28.60;;;;;;5120244;27;20229;-69
2024/01/04 08:45:03;;;;;;;9.73;5.50;;;8.80;28.80;;;;;;5112236;27;20310;-69
2024/01/04 08:47:32;;;;;;;11.90;5.88;;;8.80;28.40;;;;;;5118970;28;20226;-70
2024/01/04 08:50:01;;;;;;;10.18;6.00;;;8.80;28.10;;;;;;5116837;28;20403;-69
2024/01/04 08:52:30;;;;;;;7.75;6.03;;;8.90;28.00;;;;;;5113120;27;20305;-69
2024/01/04 08:54:59;;;;;;;8.95;5.60;;;8.90;28.10;;;;;;5117973;27;20249;-69
2024/01/04 08:57:28;;;;;;;10.63;5.78;;;8.90;27.60;;;;;;5119045;28;20233;-70
2024/01/04 08:59:58;;;;;;;7.85;5.95;;;9.00;26.90;;;;;;5118600;27;20211;-71
2024/01/04 09:02:28;;;;;;;11.50;6.10;;;8.90;28.20;;;;;;5112116;27;20609;-69
2024/01/04 09:04:56;;;;;;;9.43;6.63;;;9.00;27.50;;;;;;5120041;27;20342;-68
2024/01/04 09:07:26;;;;;;;11.20;6.85;;;8.90;27.60;;;;;;5115530;27;20241;-69
2024/01/04 09:09:55;;;;;;;9.27;6.30;;;8.90;27.40;;;;;;5107163;27;20275;-70
2024/01/04 09:12:24;;;;;;;10.70;6.32;;;8.90;26.90;;;;;;5110217;27;20222;-70
2024/01/04 09:14:52;;;;;;;8.80;6.30;;;8.90;27.90;;;;;;5118833;27;20222;-69
2024/01/04 09:17:23;;;;;;;11.60;7.32;;;9.00;27.70;;;;;;5122397;27;20660;-70
2024/01/04 09:19:51;;;;;;;8.10;7.30;;;9.00;27.90;;;;;;5104933;27;20307;-70
2024/01/04 09:22:20;;;;;;;9.50;7.20;;;9.00;28.30;;;;;;5092031;27;20222;-69
2024/01/04 09:24:49;;;;;;;8.65;6.80;;;9.10;28.00;;;;;;5101729;27;20694;-70
2024/01/04 09:27:17;;;;;;;10.10;7.07;;;9.10;28.10;;;;;;5082838;27;20219;-69
2024/01/04 09:29:47;;;;;;;8.90;6.70;;;9.10;27.50;;;;;;5097584;27;20247;-69
2024/01/04 09:32:16;;;;;;;9.20;6.80;;;9.10;26.70;;;;;;5084242;28;20233;-69
2024/01/04 09:34:46;;;;;;;8.10;6.47;;;9.10;28.00;;;;;;5098467;27;20786;-70
2024/01/04 09:37:14;;;;;;;10.32;6.78;;;9.10;27.30;;;;;;5099921;28;20237;-69
2024/01/04 09:39:43;;;;;;;8.77;6.88;;;9.10;27.30;;;;;;5089684;28;20738;-71
2024/01/04 09:42:15;;;;;;;9.55;6.72;;;9.10;27.50;;;;;;5098891;28;20567;-68
2024/01/04 09:44:46;;;;;;;8.38;6.68;;;9.20;27.00;;;;;;5078749;28;20280;-69
2024/01/04 09:47:18;;;;;;;10.35;7.10;;;9.10;27.50;;;;;;5099700;27;20324;-70
2024/01/04 09:49:49;;;;;;;9.45;6.57;;;9.20;27.70;;;;;;5099803;28;20314;-70
2024/01/04 09:52:18;;;;;;;9.43;6.20;;;9.20;27.10;;;;;;5104220;27;20223;-69
2024/01/04 09:54:49;;;;;;;10.77;6.47;;;9.20;28.40;;;;;;5095455;28;20226;-69
2024/01/04 09:57:23;;;;;;;9.35;6.82;;;9.30;27.70;;;;;;5070512;28;20462;-69
2024/01/04 09:59:52;;;;;;;10.38;6.63;;;9.30;28.20;;;;;;5077215;28;20240;-69
2024/01/04 10:02:22;;;;;;;9.45;6.32;;;9.40;27.00;;;;;;5080802;28;20226;-69
2024/01/04 10:04:53;;;;;;;7.63;6.18;;;9.40;26.90;;;;;;5104141;27;20230;-70
2024/01/04 10:07:25;;;;;;;9.45;6.38;;;9.50;25.70;;;;;;5091075;27;20236;-68
2024/01/04 10:10:00;;;;;;;8.52;5.75;;;9.50;25.50;;;;;;5105591;27;20958;-68
2024/01/04 10:12:33;;;;;;;7.90;6.15;;;9.50;24.30;;;;;;5081646;28;20989;-69
2024/01/04 10:15:03;;;;;;;8.30;6.55;;;9.50;25.80;;;;;;5102722;28;20227;-70
2024/01/04 10:17:33;;;;;;;8.60;6.00;;;9.50;24.90;;;;;;5082248;28;20331;-68
2024/01/04 10:20:04;;;;;;;7.53;6.15;;;9.40;26.10;;;;;;5079427;28;20806;-69
2024/01/04 10:22:33;;;;;;;8.52;6.05;;;9.40;25.00;;;;;;5085274;28;20234;-69
2024/01/04 10:25:08;;;;;;;8.15;6.15;;;9.40;25.20;;;;;;5103640;27;20218;-69
2024/01/04 10:27:38;;;;;;;9.60;5.90;;;9.30;26.30;;;;;;5101729;27;20621;-69
2024/01/04 10:30:07;;;;;;;9.73;6.00;;;9.40;25.70;;;;;;5120439;27;20222;-70
2024/01/04 10:32:36;;;;;;;9.43;5.90;;;9.40;26.40;;;;;;5096118;27;20275;-68
2024/01/04 10:35:08;;;;;;;8.73;5.70;;;9.40;24.90;;;;;;5117065;27;20228;-70
2024/01/04 10:37:37;;;;;;;6.82;5.47;;;9.40;25.30;;;;;;5116744;27;21005;-68
2024/01/04 10:40:09;;;;;;;7.15;5.90;;;9.30;26.30;;;;;;5104642;27;20226;-68
2024/01/04 10:42:38;;;;;;;7.75;5.68;;;9.30;26.40;;;;;;5119621;27;20225;-69
2024/01/04 10:45:10;;;;;;;12.90;5.93;;;9.40;26.90;;;;;;5100460;27;20300;-68
2024/01/04 10:47:41;;;;;;;7.80;5.47;;;9.30;25.90;;;;;;5094643;27;20218;-68
2024/01/04 10:50:14;;;;;;;7.20;5.72;;;9.20;26.40;;;;;;5109287;27;20223;-68
2024/01/04 10:52:46;;;;;;;8.68;6.38;;;9.20;27.70;;;;;;5116397;27;20230;-68
2024/01/04 10:55:16;;;;;;;6.95;5.53;;;9.20;35.70;;;;;;5102846;27;20309;-69
2024/01/04 10:57:45;;;;;;;7.00;6.10;;;9.20;26.70;;;;;;5096261;27;20226;-68
2024/01/04 11:00:16;;;;;;;6.95;6.05;;;9.30;26.80;;;;;;5101849;27;20227;-70
2024/01/04 11:02:45;;;;;;;7.70;6.50;;;9.30;26.90;;;;;;5093900;28;20792;-70
2024/01/04 11:05:16;;;;;;;10.43;6.32;;;9.30;27.70;;;;;;5095808;27;20281;-70
2024/01/04 11:07:49;;;;;;;8.43;7.22;;;9.30;26.60;;;;;;5092235;27;20591;-71
2024/01/04 11:10:18;;;;;;;11.30;7.65;;;9.30;25.20;;;;;;5089359;28;20709;-71
2024/01/04 11:12:48;;;;;;;9.70;7.70;;;9.30;26.30;;;;;;5108671;27;20219;-68
2024/01/04 11:15:17;;;;;;;10.98;7.80;;;9.30;26.40;;;;;;5097340;27;20242;-69
2024/01/04 11:18:07;;;;;;;9.90;7.78;;;9.30;25.60;;;;;;5089798;27;20765;-69
2024/01/04 11:20:54;;;;;;;10.63;8.05;;;9.30;26.00;;;;;;5096752;27;20230;-70
2024/01/04 11:23:48;;;;;;;10.82;7.90;;;9.20;35.50;;;;;;5115430;27;20229;-69
2024/01/04 11:26:24;;;;;;;8.73;7.90;;;9.30;26.40;;;;;;5112734;27;20252;-68
2024/01/04 11:28:56;;;;;;;12.88;7.47;;;9.40;35.10;;;;;;5100183;27;20237;-70
2024/01/04 11:31:26;;;;;;;10.85;8.05;;;9.30;24.30;;;;;;5105961;27;20234;-69
2024/01/04 11:33:55;;;;;;;9.73;7.72;;;9.40;25.80;;;;;;5105031;27;20283;-71
2024/01/04 11:36:27;;;;;;;9.85;7.75;;;9.40;25.30;;;;;;5110942;27;20226;-71
2024/01/04 11:38:57;;;;;;;11.60;8.23;;;9.30;25.70;;;;;;5114472;27;20233;-70
2024/01/04 11:41:32;;;;;;;9.40;8.05;;;9.40;25.80;;;;;;5112681;27;20218;-70
2024/01/04 11:44:02;;;;;;;9.10;7.80;;;9.50;25.30;;;;;;5112149;27;20222;-70
2024/01/04 11:46:33;;;;;;;11.68;8.32;;;9.50;24.50;;;;;;5119959;27;20227;-68
2024/01/04 11:49:03;;;;;;;9.80;8.55;;;9.50;23.70;;;;;;5098407;27;20245;-70
2024/01/04 11:51:35;;;;;;;10.60;8.00;;;9.50;25.30;;;;;;5113969;27;20288;-72
2024/01/04 11:54:06;;;;;;;12.43;8.15;;;9.50;24.60;;;;;;5093925;27;20237;-70
2024/01/04 11:56:36;;;;;;;12.05;8.63;;;9.60;24.20;;;;;;5111638;27;20906;-72
2024/01/04 11:59:09;;;;;;;12.32;8.38;;;9.50;24.10;;;;;;5111015;27;20241;-72
2024/01/04 12:01:39;;;;;;;12.07;8.52;;;9.50;24.40;;;;;;5102950;27;20226;-71
2024/01/04 12:04:12;;;;;;;10.90;8.90;;;9.50;24.10;;;;;;5093775;27;20333;-69
2024/01/04 12:06:44;;;;;;;12.20;8.48;;;9.50;25.30;;;;;;5104192;27;20301;-70
2024/01/04 12:09:17;;;;;;;10.23;9.10;;;9.50;24.90;;;;;;5102080;27;20716;-70
2024/01/04 12:11:56;;;;;;;12.23;8.93;;;9.60;24.00;;;;;;5108090;27;20443;-72
2024/01/04 12:14:26;;;;;;;10.75;8.70;;;9.60;25.10;;;;;;5111618;27;20258;-70
2024/01/04 12:16:55;;;;;;;17.02;8.05;;;9.50;24.20;;;;;;5099812;28;20223;-69
2024/01/04 12:19:24;;;;;;;10.10;7.80;;;9.50;25.40;;;;;;5085702;28;20888;-70
2024/01/04 12:21:55;;;;;;;9.00;8.00;;;9.50;27.50;;;;;;5099990;28;20702;-70
2024/01/04 12:24:25;;;;;;;8.30;7.05;;;9.30;28.30;;;;;;5100277;28;20873;-70
2024/01/04 12:26:54;;;;;;;11.60;7.05;;;9.30;27.20;;;;;;5099697;28;20248;-71
2024/01/04 12:29:22;;;;;;;7.80;6.78;;;9.30;27.80;;;;;;5095765;28;20231;-70
2024/01/04 12:31:52;;;;;;;8.15;7.35;;;9.30;27.00;;;;;;5092466;28;20276;-71
2024/01/04 12:34:22;;;;;;;9.70;6.90;;;9.20;28.20;;;;;;5084306;28;20700;-71
2024/01/04 12:36:51;;;;;;;9.63;7.57;;;9.20;28.10;;;;;;5101659;28;20722;-69
2024/01/04 12:39:21;;;;;;;8.68;6.65;;;9.30;27.60;;;;;;5078773;28;20776;-69
2024/01/04 12:41:50;;;;;;;8.77;6.22;;;9.20;27.20;;;;;;5100243;28;20666;-70
2024/01/04 12:44:20;;;;;;;8.43;6.75;;;9.10;27.50;;;;;;5107945;27;20386;-68
2024/01/04 12:46:49;;;;;;;10.93;6.78;;;9.30;28.10;;;;;;5109179;27;20558;-70
2024/01/04 12:49:18;;;;;;;8.48;6.55;;;9.40;26.70;;;;;;5104266;27;20226;-72
2024/01/04 12:51:52;;;;;;;8.43;6.65;;;9.40;27.30;;;;;;5108180;27;20245;-69
2024/01/04 12:54:22;;;;;;;9.60;7.45;;;9.40;26.70;;;;;;5078673;27;20226;-69
2024/01/04 12:56:54;;;;;;;10.07;7.00;;;9.50;28.50;;;;;;5078912;28;20227;-70
2024/01/04 12:59:23;;;;;;;7.88;6.82;;;9.50;26.70;;;;;;5083750;27;20226;-69
2024/01/04 13:01:52;;;;;;;8.65;6.57;;;9.40;27.40;;;;;;5086021;27;20222;-70
2024/01/04 13:04:21;;;;;;;12.30;8.25;;;9.50;27.30;;;;;;5087232;28;20234;-68
2024/01/04 13:06:50;;;;;;;15.20;8.60;;;9.60;26.70;;;;;;5081091;28;20924;-68